Historyczne dane pomiarowe

Dodano dane terminowe – wersja testowa.

Dane z okresu 1951-2019

Wersja bazy: 1.34 [2019-03-16, lista zmian], aktualizacja planowana na 2019-04-15

Dane meteo z obszaru Polski uzyskane na podstawie danych udostępnionych przez Instytut Meteorologii i Gospodarki Wodnej – Państwowy Instytut Badawczy.

 

Wybierz Datę:    

       

TemperaturaWilgotnośćWiatrCiśnienieOpadyŚniegCzas trwania zjawisk
 Stacja t tx tn tng RH VA  wxwx mslp ppp RRR   cm mm wxwxwxwxwxwxwx
1975-09-11 13.8 21.1 6.7 5.9 69.3- 2.7 2.3---- 0.0------------
1975-09-12 14.6 22.3 8.6 6.8 71.5- 5.3 3.7---- 0.0------------
1975-09-13 11.5 16.1 9.2 8.6 93.0- 6.3 3.0---- 5.9------------
1975-09-14 11.6 18.6 6.8 5.4 76.3- 2.3 3.0---- 0.0------------
1975-09-15 15.0 22.4 9.2 7.5 72.5- 4.3 4.3---- 0.0------------
1975-09-16 15.8 21.9 13.6 12.1 80.8- 3.7 2.0---- 0.0------------
1975-09-17 14.5 23.5 6.8 5.3 78.3- 1.0 0.7---- 0.0------------
1975-09-18 18.4 26.5 13.0 11.2 66.8- 0.0 2.7---- 0.0------------
1975-09-19 17.6 26.0 10.1 9.2 73.0- 1.7 1.7---- 0.0------------
1975-09-20 17.9 25.5 11.1 9.0 80.0- 1.0 0.7---- 0.0------------
1975-09-21 16.1 23.5 10.6 9.1 87.0- 3.7 1.7---- 0.0------------
1975-09-22 14.0 19.3 10.7 11.3 80.5- 4.0 2.0---- 0.0------------
1975-09-23 11.7 20.0 4.2 2.3 76.0- 4.0 1.0---- 0.0------------
1975-09-24 15.6 22.9 10.6 8.6 75.5- 6.7 2.0---- 0.0------------
1975-09-25 16.2 22.9 11.1 9.0 77.0- 4.7 2.7---- 0.0------------
1975-09-26 18.5 24.2 12.6 11.1 77.0- 3.3 5.7---- 4.8------------
1975-09-27 12.9 20.1 10.2 10.0 80.5- 6.7 4.0---- 0.0------------
1975-09-28 16.8 25.5 11.8 10.2 77.5- 4.7 2.7---- 0.0------------
1975-09-29 12.0 17.9 10.7 8.1 87.3- 8.0 2.0---- 1.6------------
1975-09-30 14.7 19.8 12.3 11.5 77.3- 3.0 6.0---- 0.0------------
1975-10-01 16.0 22.9 11.4 10.3 74.5- 4.0 6.3---- 0.0------------
1975-10-02 15.0 20.1 11.7 10.3 83.8- 7.0 1.3---- 2.1------------
1975-10-03 14.7 18.1 11.4 10.6 92.8- 7.7 1.3---- 1.6------------
1975-10-04 12.0 15.3 10.3 10.8 86.3- 7.7 8.0---- 3.0------------
1975-10-05 10.3 11.0 9.2 8.8 91.8- 8.0 3.0---- 2.4------------
1975-10-06 11.4 14.3 9.7 9.6 91.8- 8.0 3.3---- 0.5------------
1975-10-07 10.0 12.5 6.8 5.2 79.0- 5.0 8.0---- 0.9------------
1975-10-08 7.8 10.9 6.3 5.2 82.0- 6.0 4.3---- 2.4------------
1975-10-09 6.0 8.7 4.5 4.2 84.3- 5.3 5.0---- 2.2------------
1975-10-10 3.6 4.5 2.9 3.5 92.0- 6.7 1.7---- 0.3------------
142.9 ms

 

Źródłem pochodzenia danych jest Instytut Meteorologii i Gospodarki Wodnej – Państwowy Instytut Badawczy. Dane Instytutu Meteorologii i Gospodarki Wodnej – Państwowego Instytutu Badawczego zostały przetworzone.

Dane źródłowe można odnaleźć na stronie https://dane.imgw.pl